createdAt,value
2022-10-14T00:01:15.673Z,100543.63
2022-10-14T00:03:43.790Z,100531.13
2022-10-14T00:06:14.150Z,100524.94
2022-10-14T00:08:44.909Z,100528.44
2022-10-14T00:11:14.947Z,100529.28
2022-10-14T00:13:42.794Z,100525.56
2022-10-14T00:16:17.339Z,100524.25
2022-10-14T00:18:45.550Z,100515.69
2022-10-14T00:21:13.256Z,100516.47
2022-10-14T00:23:41.419Z,100521.56
2022-10-14T00:26:16.733Z,100508.00
2022-10-14T00:28:44.782Z,100509.03
2022-10-14T00:31:13.093Z,100517.88
2022-10-14T00:33:40.958Z,100514.38
2022-10-14T00:36:10.376Z,100502.06
2022-10-14T00:38:39.475Z,100494.63
2022-10-14T00:41:08.484Z,100498.34
2022-10-14T00:46:33.533Z,100508.81
2022-10-14T00:49:05.378Z,100506.94
2022-10-14T00:51:34.641Z,100502.66
2022-10-14T00:54:03.035Z,100497.31
2022-10-14T00:56:31.976Z,100494.63
2022-10-14T00:59:02.416Z,100497.88
2022-10-14T01:01:32.010Z,100493.59
2022-10-14T01:03:59.680Z,100501.59
2022-10-14T01:06:42.937Z,100502.16
2022-10-14T01:09:21.094Z,100498.66
2022-10-14T01:12:26.754Z,100494.13
2022-10-14T01:14:59.949Z,100494.94
2022-10-14T01:17:40.362Z,100496.59
2022-10-14T01:20:34.802Z,100493.06
2022-10-14T01:23:20.914Z,100485.06
2022-10-14T01:25:58.173Z,100487.72
2022-10-14T01:28:38.501Z,100488.78
2022-10-14T01:31:12.326Z,100484.25
2022-10-14T01:33:44.500Z,100482.66
2022-10-14T01:36:19.480Z,100473.28
2022-10-14T01:38:52.486Z,100469.53
2022-10-14T01:41:24.847Z,100472.69
2022-10-14T01:43:55.249Z,100471.06
2022-10-14T01:46:28.106Z,100476.41
2022-10-14T01:49:00.520Z,100471.06
2022-10-14T01:51:31.751Z,100468.41
2022-10-14T01:54:04.417Z,100466.28
2022-10-14T01:56:40.164Z,100465.72
2022-10-14T01:59:11.991Z,100464.69
2022-10-14T02:01:41.740Z,100457.72
2022-10-14T02:04:17.190Z,100460.94
2022-10-14T02:06:48.049Z,100463.13
2022-10-14T02:09:23.819Z,100455.69
2022-10-14T02:12:05.214Z,100448.50
2022-10-14T02:14:40.777Z,100446.06
2022-10-14T02:17:19.405Z,100448.50
2022-10-14T02:19:51.931Z,100436.19
2022-10-14T02:22:26.910Z,100437.81
2022-10-14T02:24:58.994Z,100428.97
2022-10-14T02:27:29.845Z,100426.28
2022-10-14T02:30:01.018Z,100420.16
2022-10-14T02:32:32.270Z,100415.38
2022-10-14T02:35:02.436Z,100398.97
2022-10-14T02:37:33.323Z,100405.97
2022-10-14T02:40:09.051Z,100396.44
2022-10-14T02:42:37.342Z,100400.97
2022-10-14T02:45:06.144Z,100398.56
2022-10-14T02:47:35.704Z,100409.53
2022-10-14T02:50:04.848Z,100403.38
2022-10-14T02:52:32.534Z,100393.75
2022-10-14T02:55:00.817Z,100387.63
2022-10-14T02:57:29.093Z,100391.91
2022-10-14T02:59:56.754Z,100391.91
2022-10-14T03:02:24.869Z,100388.41
2022-10-14T03:04:54.402Z,100382.81
2022-10-14T03:07:22.082Z,100374.81
2022-10-14T03:09:50.149Z,100378.28
2022-10-14T03:12:18.447Z,100376.69
2022-10-14T03:14:46.145Z,100380.97
2022-10-14T03:17:13.847Z,100380.97
2022-10-14T03:19:41.663Z,100387.13
2022-10-14T03:22:10.715Z,100383.63
2022-10-14T03:24:39.323Z,100383.63
2022-10-14T03:27:07.579Z,100374.81
2022-10-14T03:29:35.265Z,100376.69
2022-10-14T03:32:03.434Z,100380.16
2022-10-14T03:34:31.601Z,100380.97
2022-10-14T03:36:59.321Z,100378.28
2022-10-14T03:39:28.698Z,100366.00
2022-10-14T03:41:56.868Z,100366.78
2022-10-14T03:44:24.572Z,100357.97
2022-10-14T03:46:52.814Z,100355.88
2022-10-14T03:49:21.131Z,100359.59
2022-10-14T03:51:48.808Z,100350.53
2022-10-14T03:54:17.103Z,100355.88
2022-10-14T03:56:46.634Z,100354.00
2022-10-14T03:59:14.304Z,100346.00
2022-10-14T04:01:42.634Z,100352.16
2022-10-14T04:04:10.969Z,100339.84
2022-10-14T04:06:38.746Z,100345.19
2022-10-14T04:09:06.899Z,100343.56
2022-10-14T04:11:35.147Z,100332.88
2022-10-14T04:14:04.245Z,100345.19
2022-10-14T04:16:32.361Z,100336.38
2022-10-14T04:19:00.527Z,100348.91
2022-10-14T04:21:28.291Z,100340.88
2022-10-14T04:23:56.272Z,100348.91
2022-10-14T04:26:24.401Z,100344.38
2022-10-14T04:28:52.220Z,100326.50
2022-10-14T04:31:23.101Z,100328.34
2022-10-14T04:33:51.285Z,100330.19
2022-10-14T04:36:18.968Z,100329.16
2022-10-14T04:38:47.368Z,100331.25
2022-10-14T04:41:15.135Z,100327.53
2022-10-14T04:43:42.787Z,100323.81
2022-10-14T04:46:10.956Z,100328.34
2022-10-14T04:48:40.810Z,100323.81
2022-10-14T04:51:08.489Z,100323.03
2022-10-14T04:53:36.627Z,100313.63
2022-10-14T04:56:04.882Z,100311.50
2022-10-14T04:58:32.586Z,100309.88
2022-10-14T05:01:00.531Z,100295.72
2022-10-14T05:03:28.789Z,100305.34
2022-10-14T05:05:57.829Z,100302.69
2022-10-14T05:08:25.958Z,100292.25
2022-10-14T05:10:54.038Z,100297.59
2022-10-14T05:13:21.706Z,100299.19
2022-10-14T05:15:50.065Z,100295.72
2022-10-14T05:18:17.875Z,100292.25
2022-10-14T05:20:45.822Z,100297.59
2022-10-14T05:23:15.606Z,100287.72
2022-10-14T05:25:43.944Z,100289.56
2022-10-14T05:28:11.630Z,100274.03
2022-10-14T05:30:39.661Z,100281.56
2022-10-14T05:33:07.890Z,100286.91
2022-10-14T05:35:57.600Z,100278.91
2022-10-14T05:38:24.956Z,100275.16
2022-10-14T05:40:53.657Z,100275.97
2022-10-14T05:43:21.554Z,100267.16
2022-10-14T05:45:49.654Z,100257.53
2022-10-14T05:48:17.923Z,100267.16
2022-10-14T05:50:45.774Z,100258.59
2022-10-14T05:53:14.253Z,100254.84
2022-10-14T05:55:43.508Z,100251.13
2022-10-14T05:58:11.187Z,100247.38
2022-10-14T06:00:39.482Z,100244.72
2022-10-14T06:03:07.345Z,100241.22
2022-10-14T06:05:38.112Z,100243.69
2022-10-14T06:08:06.248Z,100239.38
2022-10-14T06:10:35.453Z,100237.53
2022-10-14T06:13:04.607Z,100236.47
2022-10-14T06:15:32.349Z,100245.28
2022-10-14T06:18:00.316Z,100241.81
2022-10-14T06:20:28.069Z,100240.19
2022-10-14T06:22:55.743Z,100238.34
2022-10-14T06:25:23.878Z,100240.69
2022-10-14T06:27:51.556Z,100239.38
2022-10-14T06:30:21.226Z,100245.28
2022-10-14T06:32:48.920Z,100246.34
2022-10-14T06:35:17.187Z,100239.38
2022-10-14T06:37:46.889Z,100241.56
2022-10-14T06:40:15.002Z,100239.94
2022-10-14T06:42:42.781Z,100233.78
2022-10-14T06:45:11.655Z,100223.66
2022-10-14T06:47:40.973Z,100232.47
2022-10-14T06:50:12.318Z,100224.47
2022-10-14T06:52:40.991Z,100221.78
2022-10-14T06:55:09.590Z,100223.41
2022-10-14T06:57:37.851Z,100225.03
2022-10-14T07:00:07.053Z,100218.63
2022-10-14T07:02:34.967Z,100215.97
2022-10-14T07:05:04.142Z,100213.84
2022-10-14T07:07:32.956Z,100223.72
2022-10-14T07:10:00.903Z,100207.44
2022-10-14T07:12:29.163Z,100208.50
2022-10-14T07:14:57.028Z,100216.28
2022-10-14T07:17:25.011Z,100214.41
2022-10-14T07:19:52.883Z,100218.69
2022-10-14T07:22:22.172Z,100209.59
2022-10-14T07:24:50.031Z,100208.81
2022-10-14T07:27:18.814Z,100215.75
2022-10-14T07:29:46.995Z,100219.81
2022-10-14T07:32:14.793Z,100217.13
2022-10-14T07:34:42.658Z,100217.94
2022-10-14T07:37:10.499Z,100216.06
2022-10-14T07:39:40.210Z,100223.81
2022-10-14T07:42:07.898Z,100221.97
2022-10-14T07:44:37.079Z,100221.72
2022-10-14T07:47:05.924Z,100222.53
2022-10-14T07:49:33.672Z,100226.81
2022-10-14T07:52:01.358Z,100230.28
2022-10-14T07:54:31.223Z,100229.47
2022-10-14T07:57:00.297Z,100220.97
2022-10-14T07:59:28.359Z,100219.91
2022-10-14T08:01:56.723Z,100215.38
2022-10-14T08:04:25.212Z,100216.97
2022-10-14T08:06:54.100Z,100211.38
2022-10-14T08:09:22.096Z,100219.38
2022-10-14T08:11:50.335Z,100221.84
2022-10-14T08:14:19.543Z,100213.56
2022-10-14T08:16:48.009Z,100219.69
2022-10-14T08:19:16.190Z,100213.28
2022-10-14T08:21:44.997Z,100216.78
2022-10-14T08:24:16.438Z,100223.75
2022-10-14T08:26:51.682Z,100211.72
2022-10-14T08:29:23.962Z,100213.59
2022-10-14T08:31:55.640Z,100214.66
2022-10-14T08:34:25.497Z,100212.53
2022-10-14T08:41:00.339Z,100217.38
2022-10-14T08:43:34.649Z,100210.97
2022-10-14T08:46:12.415Z,100214.75
2022-10-14T08:48:41.083Z,100210.22
2022-10-14T08:51:15.248Z,100208.41
2022-10-14T08:53:47.391Z,100209.78
2022-10-14T08:56:16.237Z,100205.75
2022-10-14T08:58:48.283Z,100206.06
2022-10-14T09:01:27.267Z,100191.94
2022-10-14T09:04:04.127Z,100196.75
2022-10-14T09:06:35.395Z,100198.38
2022-10-14T09:09:10.559Z,100203.22
2022-10-14T09:11:44.439Z,100209.94
2022-10-14T09:14:21.271Z,100210.47
2022-10-14T09:16:59.254Z,100210.22
2022-10-14T09:19:36.566Z,100203.00
2022-10-14T09:22:04.396Z,100205.47
2022-10-14T09:24:37.121Z,100200.66
2022-10-14T09:27:09.277Z,100202.03
2022-10-14T09:29:45.280Z,100206.03
2022-10-14T09:32:28.585Z,100204.97
2022-10-14T09:35:00.119Z,100204.97
2022-10-14T09:37:30.772Z,100203.09
2022-10-14T09:40:02.305Z,100183.06
2022-10-14T09:42:43.352Z,100183.38
2022-10-14T09:45:13.509Z,100184.97
2022-10-14T09:52:01.196Z,100198.09
2022-10-14T09:54:32.075Z,100193.81
2022-10-14T09:57:04.016Z,100196.75
2022-10-14T09:59:36.241Z,100193.28
2022-10-14T10:02:09.637Z,100186.84
2022-10-14T10:04:48.094Z,100187.66
2022-10-14T10:07:36.394Z,100183.09
2022-10-14T10:10:23.384Z,100186.84
2022-10-14T10:13:01.632Z,100179.91
2022-10-14T10:15:36.302Z,100181.50
2022-10-14T12:00:21.428Z,100111.81
2022-10-14T12:02:55.711Z,100116.94
2022-10-14T12:05:31.427Z,100117.78
2022-10-14T12:08:10.699Z,100118.06
2022-10-14T12:10:44.839Z,100106.03
2022-10-14T12:13:16.822Z,100110.63
2022-10-14T12:15:51.686Z,100105.84
2022-10-14T12:18:20.367Z,100094.91
2022-10-14T12:20:54.063Z,100100.00
2022-10-14T12:23:32.766Z,100100.53
2022-10-14T12:26:07.733Z,100102.97
2022-10-14T12:28:38.215Z,100098.94
2022-10-14T12:31:33.848Z,100099.22
2022-10-14T12:34:34.770Z,100094.13
2022-10-14T12:37:50.261Z,100085.00
2022-10-14T12:40:25.718Z,100097.34
2022-10-14T12:43:14.406Z,100090.91
2022-10-14T12:45:52.057Z,100088.22
2022-10-14T12:48:23.627Z,100083.94
2022-10-14T12:50:57.233Z,100088.22
2022-10-14T12:53:27.927Z,100079.66
2022-10-14T12:55:59.569Z,100075.38
2022-10-14T12:58:38.013Z,100082.84
2022-10-14T13:01:17.833Z,100083.41
2022-10-14T13:03:59.303Z,100080.97
2022-10-14T16:27:21.403Z,99934.41
2022-10-14T16:29:49.615Z,99938.16
2022-10-14T16:32:17.962Z,99941.91
2022-10-14T16:34:47.141Z,99941.91
2022-10-14T16:37:14.823Z,99931.19
2022-10-14T16:39:42.475Z,99932.00
2022-10-14T16:42:10.695Z,99940.31
2022-10-14T16:44:39.810Z,99940.31
2022-10-14T16:47:20.758Z,99933.59
2022-10-14T16:49:51.843Z,99923.69
2022-10-14T16:52:21.421Z,99925.28
2022-10-14T16:54:49.477Z,99931.47
2022-10-14T16:57:17.175Z,99930.66
2022-10-14T16:59:46.960Z,99924.75
2022-10-14T17:02:17.340Z,99926.13
2022-10-14T17:04:47.095Z,99937.09
2022-10-14T17:07:17.636Z,99928.53
2022-10-14T17:09:45.383Z,99937.88
2022-10-14T17:12:14.256Z,99936.56
2022-10-14T17:14:42.884Z,99937.06
2022-10-14T17:17:13.500Z,99944.56
2022-10-14T17:19:43.360Z,99936.53
2022-10-14T17:22:11.141Z,99945.66
2022-10-14T17:24:39.287Z,99935.47
2022-10-14T17:27:06.955Z,99941.34
2022-10-14T17:29:34.771Z,99941.59
2022-10-14T17:32:02.655Z,99937.84
2022-10-14T17:34:32.748Z,99935.44
2022-10-14T17:37:00.583Z,99926.34
2022-10-14T17:39:29.889Z,99937.84
2022-10-14T17:42:00.650Z,99942.41
2022-10-14T17:44:29.827Z,99944.00
2022-10-14T17:46:59.254Z,99950.41
2022-10-14T17:49:27.004Z,99950.69
2022-10-14T17:51:56.226Z,99948.25
2022-10-14T17:54:23.845Z,99946.13
2022-10-14T17:56:51.489Z,99949.88
2022-10-14T17:59:19.326Z,99950.41
2022-10-14T18:02:02.208Z,99944.53
2022-10-14T18:04:32.774Z,99937.53
2022-10-14T18:07:02.182Z,99935.13
2022-10-14T18:09:29.835Z,99938.09
2022-10-14T18:12:13.405Z,99942.88
2022-10-14T18:14:41.428Z,99945.84
2022-10-14T18:17:11.114Z,99941.56
2022-10-14T18:19:39.364Z,99947.69
2022-10-14T18:22:10.011Z,99951.44
2022-10-14T18:24:39.386Z,99956.78
2022-10-14T18:27:07.306Z,99954.09
2022-10-14T18:29:34.971Z,99952.72
2022-10-14T18:32:02.874Z,99951.41
2022-10-14T18:34:30.752Z,99948.44
2022-10-14T18:36:58.501Z,99944.44
2022-10-14T18:39:28.211Z,99944.44
2022-10-14T18:41:55.882Z,99947.63
2022-10-14T18:44:26.509Z,99944.94
2022-10-14T18:46:54.650Z,99942.28
2022-10-14T18:49:24.274Z,99929.69
2022-10-14T18:51:56.230Z,99927.28
2022-10-14T18:54:24.882Z,99932.09
2022-10-14T18:56:54.837Z,99927.56
2022-10-14T18:59:24.794Z,99919.28
2022-10-14T19:01:53.394Z,99919.00
2022-10-14T19:04:24.036Z,99909.91
2022-10-14T19:06:53.364Z,99916.06
2022-10-14T19:09:24.621Z,99914.19
2022-10-14T19:11:55.422Z,99912.88
2022-10-14T19:14:23.115Z,99913.94
2022-10-14T19:16:50.873Z,99913.69
2022-10-14T19:19:20.894Z,99909.13
2022-10-14T19:21:50.335Z,99909.94
2022-10-14T19:24:18.153Z,99901.09
2022-10-14T19:26:47.883Z,99895.75
2022-10-14T19:29:17.921Z,99900.81
2022-10-14T19:31:45.871Z,99901.09
2022-10-14T19:34:17.055Z,99893.06
2022-10-14T19:36:45.798Z,99888.81
2022-10-14T19:39:17.855Z,99899.78
2022-10-14T19:41:47.298Z,99892.78
2022-10-14T19:44:18.488Z,99902.19
2022-10-14T19:46:47.601Z,99896.53
2022-10-14T19:49:16.785Z,99898.13
2022-10-14T19:51:46.534Z,99902.69
2022-10-14T19:54:14.591Z,99904.03
2022-10-14T19:56:42.802Z,99900.56
2022-10-14T19:59:14.347Z,99897.88
2022-10-14T20:01:43.460Z,99896.81
2022-10-14T20:04:11.267Z,99885.59
2022-10-14T20:06:40.329Z,99882.63
2022-10-14T20:09:08.954Z,99882.91
2022-10-14T20:11:36.966Z,99871.38
2022-10-14T20:14:04.603Z,99869.53
2022-10-14T20:16:32.282Z,99868.69
2022-10-14T20:19:01.860Z,99872.22
2022-10-14T20:21:30.443Z,99874.88
2022-10-14T20:23:59.107Z,99865.00
2022-10-14T20:26:27.247Z,99865.78
2022-10-14T20:28:55.805Z,99875.41
2022-10-14T20:31:26.138Z,99888.78
2022-10-14T20:33:56.575Z,99884.25
2022-10-14T20:36:25.666Z,99885.59
2022-10-14T20:38:53.607Z,99883.94
2022-10-14T20:41:22.857Z,99882.34
2022-10-14T20:43:51.378Z,99895.72
2022-10-14T20:46:19.671Z,99895.19
2022-10-14T20:48:47.587Z,99896.81
2022-10-14T20:51:17.568Z,99892.53
2022-10-14T20:53:46.841Z,99898.34
2022-10-14T20:56:15.143Z,99906.91
2022-10-14T20:58:43.832Z,99902.38
2022-10-14T21:01:15.074Z,99911.44
2022-10-14T21:03:44.938Z,99904.50
2022-10-14T21:06:15.721Z,99907.44
2022-10-14T21:08:44.799Z,99908.25
2022-10-14T21:11:17.070Z,99908.75
2022-10-14T21:13:46.752Z,99912.78
2022-10-14T21:16:16.782Z,99919.72
2022-10-14T21:18:49.120Z,99906.91
2022-10-14T21:21:18.552Z,99908.75
2022-10-14T21:23:46.604Z,99911.44
2022-10-14T21:26:16.386Z,99912.00
2022-10-14T21:28:44.477Z,99903.97
2022-10-14T21:31:17.516Z,99899.44
2022-10-14T21:33:47.083Z,99900.22
2022-10-14T21:36:16.962Z,99897.28
2022-10-14T21:38:45.392Z,99891.13
2022-10-14T21:41:13.212Z,99890.88
2022-10-14T21:43:42.742Z,99899.75
2022-10-14T21:46:12.328Z,99901.59
2022-10-14T21:48:40.896Z,99899.75
2022-10-14T21:51:11.635Z,99891.72
2022-10-14T21:53:40.381Z,99901.34
2022-10-14T21:56:09.204Z,99899.75
2022-10-14T21:58:37.509Z,99898.91
2022-10-14T22:01:08.546Z,99894.13
2022-10-14T22:03:37.751Z,99884.50
2022-10-14T22:06:08.172Z,99879.16
2022-10-14T22:08:38.353Z,99879.16
2022-10-14T22:11:07.579Z,99879.16
2022-10-14T22:13:36.325Z,99865.78
2022-10-14T22:16:04.347Z,99864.16
2022-10-14T22:18:33.545Z,99863.09
2022-10-14T22:21:05.325Z,99867.84
2022-10-14T22:23:33.116Z,99873.22
2022-10-14T22:26:02.154Z,99871.59
2022-10-14T22:28:31.358Z,99876.44
2022-10-14T22:31:05.360Z,99874.56
2022-10-14T22:33:38.192Z,99879.63
2022-10-14T22:36:07.224Z,99874.84
2022-10-14T22:38:35.157Z,99885.53
2022-10-14T22:41:03.598Z,99885.53
2022-10-14T22:43:31.380Z,99878.53
2022-10-14T22:46:03.825Z,99878.31
2022-10-14T22:48:32.600Z,99877.75
2022-10-14T22:51:05.435Z,99874.84
2022-10-14T22:53:33.263Z,99872.41
2022-10-14T22:56:01.482Z,99864.66
2022-10-14T22:58:30.452Z,99867.59
2022-10-14T23:00:58.190Z,99867.59
2022-10-14T23:03:27.198Z,99865.16
2022-10-14T23:06:00.753Z,99868.91
2022-10-14T23:08:30.583Z,99865.69
2022-10-14T23:10:58.475Z,99867.03
2022-10-14T23:13:26.923Z,99855.53
2022-10-14T23:15:58.511Z,99864.63
2022-10-14T23:18:27.913Z,99864.88
2022-10-14T23:20:56.283Z,99866.47
2022-10-14T23:23:24.351Z,99860.31
2022-10-14T23:25:53.757Z,99854.41
2022-10-14T23:28:21.511Z,99859.25
2022-10-14T23:30:49.184Z,99852.28
2022-10-14T23:33:17.381Z,99849.84
2022-10-14T23:35:45.018Z,99858.16
2022-10-14T23:38:13.415Z,99861.91
2022-10-14T23:40:41.497Z,99864.84
2022-10-14T23:43:10.541Z,99861.34
2022-10-14T23:45:38.683Z,99858.94
2022-10-14T23:48:07.540Z,99853.84
2022-10-14T23:50:35.723Z,99853.84
2022-10-14T23:53:03.810Z,99865.84
2022-10-14T23:55:31.544Z,99870.41
2022-10-14T23:57:59.770Z,99869.06
